Time;durP1;ratioP1;P1;durP2;ratioP2;P2;SDS_P1;SDS_P2;PMS_P1;PMS_P2;Temp;Humidity;BMP_temperature;BMP_pressure;BME280_temperature;BME280_humidity;BME280_pressure;Samples;Min_cycle;Max_cycle;Signal;HPM_P1;HPM_P2
2022/06/09 00:01:25;;;;;;;21.15;18.45;;;;;;;15.97;78.69;99383.03;2170453;80;21085;-71
2022/06/09 00:04:32;;;;;;;23.10;18.98;;;;;;;15.97;78.78;99379.84;2161981;80;21022;-71
2022/06/09 00:07:34;;;;;;;22.45;19.20;;;;;;;15.97;78.97;99384.37;2174267;80;20974;-71
2022/06/09 00:10:39;;;;;;;26.30;21.80;;;;;;;15.94;79.09;99380.27;2167114;80;20994;-71
2022/06/09 00:13:41;;;;;;;22.90;20.12;;;;;;;15.92;79.33;99374.31;2158804;81;21067;-71
2022/06/09 00:16:43;;;;;;;26.77;22.42;;;;;;;15.90;79.67;99375.86;2120964;83;21053;-70
2022/06/09 00:19:45;;;;;;;27.87;23.87;;;;;;;15.89;79.81;99374.23;2136006;81;21039;-70
2022/06/09 00:22:46;;;;;;;26.40;23.50;;;;;;;15.88;80.02;99367.26;2128019;81;20975;-70
2022/06/09 00:25:49;;;;;;;24.87;21.97;;;;;;;15.89;79.91;99364.06;2098372;82;21038;-71
2022/06/09 00:28:51;;;;;;;25.20;22.50;;;;;;;15.88;79.81;99349.03;2086835;83;21034;-72
2022/06/09 00:31:53;;;;;;;29.07;24.20;;;;;;;15.89;79.71;99348.82;2091826;83;21051;-70
2022/06/09 00:34:54;;;;;;;25.90;22.10;;;;;;;15.92;79.91;99347.56;2089485;83;21031;-71
2022/06/09 00:37:56;;;;;;;22.48;20.02;;;;;;;15.92;80.18;99348.91;2097654;83;21089;-71
2022/06/09 00:40:59;;;;;;;21.45;19.15;;;;;;;15.91;80.05;99345.94;2095945;83;21092;-71
2022/06/09 00:44:23;;;;;;;21.87;19.67;;;;;;;15.92;79.72;99342.22;2093562;83;20952;-70
2022/06/09 00:47:31;;;;;;;22.25;19.20;;;;;;;15.96;79.71;99337.23;2095473;83;20992;-70
2022/06/09 00:50:36;;;;;;;25.17;19.77;;;;;;;15.97;79.79;99338.36;2093366;83;21026;-71
2022/06/09 00:53:40;;;;;;;23.70;21.02;;;;;;;15.94;79.87;99325.44;2090834;83;21061;-73
2022/06/09 00:56:53;;;;;;;23.65;20.97;;;;;;;15.88;79.81;99325.80;2093830;83;20983;-71
2022/06/09 00:59:58;;;;;;;25.82;23.12;;;;;;;15.86;79.94;99329.20;2096552;83;21066;-72
2022/06/09 01:03:00;;;;;;;26.93;21.52;;;;;;;15.87;79.98;99332.69;2094023;83;20991;-71
2022/06/09 01:06:16;;;;;;;24.40;21.80;;;;;;;15.89;80.04;99325.27;2097652;83;21794;-71
2022/06/09 01:09:23;;;;;;;25.85;20.88;;;;;;;15.86;80.12;99320.36;2097364;83;21523;-71
2022/06/09 01:12:39;;;;;;;21.97;19.57;;;;;;;15.88;80.20;99326.29;2095847;83;21008;-71
2022/06/09 01:16:00;;;;;;;25.25;20.23;;;;;;;15.92;80.12;99316.80;2097305;83;20982;-71
2022/06/09 01:19:42;;;;;;;22.55;19.27;;;;;;;15.97;80.21;99315.63;2103175;83;21003;-71
2022/06/09 01:23:30;;;;;;;24.80;20.35;;;;;;;16.00;80.12;99317.86;2028846;86;21110;-72
2022/06/09 01:26:56;;;;;;;20.45;18.35;;;;;;;16.01;79.97;99311.45;2104060;83;21109;-71
2022/06/09 01:30:24;;;;;;;21.90;19.55;;;;;;;15.98;79.76;99308.41;2126316;82;21081;-71
2022/06/09 01:33:37;;;;;;;24.60;21.97;;;;;;;15.91;80.03;99313.31;2105453;82;21036;-71
2022/06/09 01:37:14;;;;;;;24.70;21.48;;;;;;;15.86;80.30;99311.00;2125905;82;21000;-71
2022/06/09 01:40:19;;;;;;;24.07;21.42;;;;;;;15.87;80.36;99309.95;2126190;82;21051;-71
2022/06/09 01:43:21;;;;;;;26.12;21.85;;;;;;;15.86;80.09;99301.64;2127931;82;21037;-71
2022/06/09 01:46:27;;;;;;;25.40;22.77;;;;;;;15.83;80.17;99298.07;2124055;82;21018;-72
2022/06/09 01:49:32;;;;;;;24.40;20.75;;;;;;;15.83;80.36;99299.41;2128650;82;21034;-72
2022/06/09 01:52:34;;;;;;;25.20;22.50;;;;;;;15.84;80.26;99305.05;2169228;80;21041;-71
2022/06/09 01:55:43;;;;;;;24.07;19.80;;;;;;;15.80;80.35;99293.98;2170130;80;21042;-72
2022/06/09 01:58:52;;;;;;;22.77;20.37;;;;;;;15.79;80.36;99303.02;2170919;80;21591;-74
2022/06/09 02:02:01;;;;;;;26.83;22.93;;;;;;;15.77;80.39;99300.27;2169729;80;20979;-71
2022/06/09 02:05:24;;;;;;;27.30;22.73;;;;;;;15.75;80.57;99301.03;2171989;80;20994;-71
2022/06/09 02:08:29;;;;;;;30.23;22.10;;;;;;;15.68;80.53;99306.42;2169639;80;20962;-71
2022/06/09 02:11:30;;;;;;;25.05;22.35;;;;;;;15.58;80.71;99302.89;2109086;82;21028;-71
2022/06/09 02:14:33;;;;;;;25.97;23.18;;;;;;;15.58;80.85;99298.88;2141243;82;21026;-73
2022/06/09 02:17:45;;;;;;;28.92;23.80;;;;;;;15.55;81.02;99293.97;2120805;82;20980;-71
2022/06/09 02:21:09;;;;;;;26.93;24.10;;;;;;;15.53;81.31;99294.70;2105254;83;21544;-71
2022/06/09 02:24:16;;;;;;;27.42;24.37;;;;;;;15.49;81.45;99306.06;2079865;84;21109;-73
2022/06/09 02:27:16;;;;;;;33.20;24.45;;;;;;;15.46;81.78;99312.66;2092537;84;21505;-72
2022/06/09 02:30:17;;;;;;;27.55;23.12;;;;;;;15.45;81.93;99311.01;2126851;81;21076;-72
2022/06/09 02:33:20;;;;;;;30.25;23.73;;;;;;;15.45;81.92;99317.17;2131771;82;20957;-72
2022/06/09 02:36:22;;;;;;;28.65;23.60;;;;;;;15.43;82.11;99315.78;2128267;81;21049;-72
2022/06/09 02:39:23;;;;;;;25.20;20.88;;;;;;;15.45;82.49;99310.48;2135650;81;20949;-72
2022/06/09 02:42:25;;;;;;;28.90;22.98;;;;;;;15.48;82.77;99313.24;2134513;81;21025;-74
2022/06/09 02:45:28;;;;;;;32.38;22.80;;;;;;;15.50;82.93;99325.07;2136518;82;21454;-73
2022/06/09 02:48:29;;;;;;;26.60;23.35;;;;;;;15.51;83.22;99330.18;2129363;82;21085;-73
2022/06/09 02:51:37;;;;;;;28.55;23.15;;;;;;;15.53;83.66;99340.67;2131744;82;21098;-73
2022/06/09 02:54:39;;;;;;;27.27;23.85;;;;;;;15.53;83.80;99338.81;2131852;82;20994;-73
2022/06/09 02:57:42;;;;;;;30.70;22.90;;;;;;;15.55;84.25;99340.76;2128925;82;21109;-72
2022/06/09 03:00:43;;;;;;;27.55;23.32;;;;;;;15.58;84.27;99342.18;2130367;81;20979;-73
2022/06/09 03:03:47;;;;;;;27.60;22.42;;;;;;;15.61;84.43;99343.89;2133893;82;21041;-73
2022/06/09 03:06:48;;;;;;;28.32;24.07;;;;;;;15.64;84.51;99348.80;2130150;82;21057;-73
2022/06/09 03:09:53;;;;;;;29.67;25.05;;;;;;;15.68;84.60;99350.05;2130953;82;21596;-73
2022/06/09 03:12:55;;;;;;;28.25;23.87;;;;;;;15.74;84.78;99359.55;2144882;81;21311;-72
2022/06/09 03:15:56;;;;;;;28.92;24.18;;;;;;;15.77;84.85;99350.59;2167716;80;21048;-73
2022/06/09 03:18:58;;;;;;;31.07;23.83;;;;;;;15.79;84.92;99355.18;2166637;80;20974;-73
2022/06/09 03:22:00;;;;;;;28.65;25.12;;;;;;;15.84;84.97;99366.56;2164723;80;21447;-72
2022/06/09 03:25:01;;;;;;;26.97;23.40;;;;;;;15.86;85.08;99359.15;2160450;80;21489;-72
2022/06/09 03:28:04;;;;;;;27.15;24.18;;;;;;;15.89;85.08;99354.70;2116677;82;21103;-73
2022/06/09 03:31:05;;;;;;;32.63;22.80;;;;;;;15.92;85.10;99355.59;2127937;81;21025;-72
2022/06/09 03:34:06;;;;;;;28.35;23.45;;;;;;;15.93;85.18;99360.41;2126604;82;21110;-72
2022/06/09 03:37:08;;;;;;;27.02;24.12;;;;;;;15.96;85.14;99358.64;2126648;82;21002;-72
2022/06/09 03:40:14;;;;;;;25.25;22.60;;;;;;;15.99;85.15;99364.88;2136949;82;21592;-73
2022/06/09 03:43:15;;;;;;;28.17;24.52;;;;;;;16.02;85.29;99365.28;2119912;81;21491;-71
2022/06/09 03:46:17;;;;;;;29.18;22.73;;;;;;;16.06;85.32;99364.31;2123366;82;21031;-70
2022/06/09 03:49:18;;;;;;;30.32;23.00;;;;;;;16.07;85.30;99357.39;2129595;82;21010;-71
2022/06/09 03:52:20;;;;;;;32.40;23.62;;;;;;;16.10;85.32;99358.28;2114663;82;20988;-71
2022/06/09 03:55:22;;;;;;;27.77;22.87;;;;;;;16.12;85.30;99364.23;2122637;82;21016;-70
2022/06/09 03:58:24;;;;;;;26.68;22.95;;;;;;;16.13;85.26;99356.53;2130528;82;20968;-70
2022/06/09 04:01:26;;;;;;;31.12;22.80;;;;;;;16.16;85.32;99359.78;2126139;82;21007;-70
2022/06/09 04:04:30;;;;;;;26.07;21.87;;;;;;;16.19;85.35;99359.33;2121442;82;21530;-71
2022/06/09 04:07:32;;;;;;;24.70;21.85;;;;;;;16.22;85.27;99365.58;2118133;82;21029;-71
2022/06/09 04:10:34;;;;;;;24.10;19.85;;;;;;;16.26;85.26;99360.09;2124750;82;20958;-72
2022/06/09 04:13:37;;;;;;;22.80;19.48;;;;;;;16.30;85.21;99363.95;2131289;82;21031;-71
2022/06/09 04:16:44;;;;;;;25.95;20.62;;;;;;;16.30;85.23;99360.78;2126973;82;21014;-71
2022/06/09 04:19:45;;;;;;;24.20;21.70;;;;;;;16.32;85.22;99355.19;2123704;82;21035;-71
2022/06/09 04:22:47;;;;;;;28.47;23.73;;;;;;;16.34;85.18;99355.27;2138445;82;21014;-71
2022/06/09 04:25:48;;;;;;;26.42;22.58;;;;;;;16.35;85.25;99357.42;2141430;80;20983;-72
2022/06/09 04:28:50;;;;;;;26.73;23.83;;;;;;;16.35;85.28;99360.09;2166880;79;21089;-71
2022/06/09 04:31:51;;;;;;;28.17;21.70;;;;;;;16.39;85.31;99357.78;2169878;80;21057;-71
2022/06/09 04:34:53;;;;;;;24.65;22.05;;;;;;;16.44;85.34;99358.75;2161591;80;20961;-71
2022/06/09 04:38:00;;;;;;;24.65;21.30;;;;;;;16.47;85.20;99359.67;2173230;78;20998;-73
2022/06/09 04:41:09;;;;;;;24.55;21.95;;;;;;;16.48;85.18;99360.48;2178922;80;20979;-71
2022/06/09 04:44:09;;;;;;;26.35;21.57;;;;;;;16.54;85.31;99356.38;2163627;80;21116;-71
2022/06/09 04:47:11;;;;;;;25.30;22.25;;;;;;;16.59;85.28;99353.84;2171042;80;21101;-70
2022/06/09 04:50:12;;;;;;;24.82;21.55;;;;;;;16.58;85.08;99364.27;2168748;80;21555;-72
2022/06/09 04:53:14;;;;;;;24.00;20.90;;;;;;;16.62;85.05;99369.99;2180509;80;21010;-70
2022/06/09 04:56:18;;;;;;;23.80;21.23;;;;;;;16.64;85.10;99373.77;2122198;82;20948;-70
2022/06/09 04:59:20;;;;;;;24.67;21.82;;;;;;;16.63;85.12;99368.94;2182114;80;22140;-70
2022/06/09 05:02:24;;;;;;;25.92;21.60;;;;;;;16.62;85.22;99366.50;2177875;80;21678;-70
2022/06/09 05:05:30;;;;;;;27.05;21.80;;;;;;;16.62;85.43;99363.30;2172509;80;20994;-70
2022/06/09 05:08:32;;;;;;;24.57;21.87;;;;;;;16.65;85.77;99357.48;2177660;80;21072;-71
2022/06/09 05:11:33;;;;;;;23.75;21.35;;;;;;;16.67;85.65;99363.95;2180002;80;22385;-71
2022/06/09 05:14:34;;;;;;;26.82;22.67;;;;;;;16.73;85.66;99370.58;2185204;80;20989;-71
2022/06/09 05:17:36;;;;;;;23.98;21.48;;;;;;;16.78;85.66;99376.61;2181821;80;21037;-73
2022/06/09 05:20:37;;;;;;;22.48;20.27;;;;;;;16.82;85.45;99379.16;2181211;80;21468;-71
2022/06/09 05:23:39;;;;;;;22.32;20.05;;;;;;;16.82;85.52;99384.52;2134166;82;21007;-73
2022/06/09 05:26:41;;;;;;;22.82;19.87;;;;;;;16.75;85.35;99381.89;2133359;82;20960;-71
2022/06/09 05:29:45;;;;;;;21.42;18.80;;;;;;;16.74;85.61;99386.13;2128200;82;21022;-71
2022/06/09 05:32:47;;;;;;;21.42;19.17;;;;;;;16.76;85.74;99389.41;2145120;81;21462;-73
2022/06/09 05:35:49;;;;;;;20.92;18.73;;;;;;;16.75;85.76;99389.09;2161393;80;21516;-71
2022/06/09 05:45:32;;;;;;;20.82;18.82;;;;;;;17.00;85.83;99395.19;2177133;80;21037;-72
2022/06/09 05:48:35;;;;;;;21.65;18.75;;;;;;;17.11;85.83;99402.17;2166333;80;21041;-72
2022/06/09 05:51:37;;;;;;;24.02;20.40;;;;;;;17.17;85.92;99402.60;2163549;80;21014;-72
2022/06/09 05:54:38;;;;;;;21.45;19.15;;;;;;;17.24;85.71;99408.70;2141025;81;21080;-72
2022/06/09 05:57:40;;;;;;;21.37;19.17;;;;;;;17.36;85.87;99406.06;2144371;81;20951;-73
2022/06/09 06:00:42;;;;;;;25.27;19.73;;;;;;;17.42;85.61;99405.95;2138783;81;21037;-72
2022/06/09 06:03:44;;;;;;;23.42;20.00;;;;;;;17.50;85.51;99407.50;2139718;81;20963;-72
2022/06/09 06:06:46;;;;;;;23.22;20.08;;;;;;;17.56;85.26;99411.12;2136326;81;21077;-71
2022/06/09 06:09:47;;;;;;;22.20;20.00;;;;;;;17.64;85.17;99409.46;2147284;81;21469;-72
2022/06/09 06:12:49;;;;;;;22.90;20.45;;;;;;;17.70;84.93;99419.27;2141785;81;21045;-72
2022/06/09 06:15:51;;;;;;;22.40;20.00;;;;;;;17.82;85.18;99417.97;2138215;81;21534;-72
2022/06/09 06:18:53;;;;;;;23.98;20.10;;;;;;;18.00;85.51;99410.38;2120817;81;21031;-71
2022/06/09 06:21:54;;;;;;;23.10;18.87;;;;;;;18.23;85.14;99410.89;2135132;81;20982;-73
2022/06/09 06:24:59;;;;;;;20.35;18.25;;;;;;;18.52;84.72;99403.73;2141234;81;20998;-73
2022/06/09 06:27:59;;;;;;;20.35;17.05;;;;;;;18.81;84.73;99410.85;2140987;81;21058;-71
2022/06/09 06:31:00;;;;;;;21.07;18.30;;;;;;;19.18;83.49;99406.45;2142838;82;21082;-71
2022/06/09 06:34:02;;;;;;;19.20;16.07;;;;;;;19.46;83.32;99404.28;2139161;82;22255;-71
2022/06/09 06:37:04;;;;;;;17.17;15.38;;;;;;;19.88;82.76;99400.44;2146166;82;21022;-70
2022/06/09 06:40:06;;;;;;;19.48;14.25;;;;;;;20.36;81.81;99400.34;2138892;82;21046;-71
2022/06/09 06:43:08;;;;;;;15.88;14.07;;;;;;;20.63;80.54;99406.37;2140290;82;21052;-70
2022/06/09 06:46:39;;;;;;;18.42;15.15;;;;;;;20.69;79.34;99402.12;2143726;81;21033;-70
2022/06/09 06:49:39;;;;;;;14.53;13.03;;;;;;;20.71;78.63;99401.89;2055254;86;21681;-70
2022/06/09 06:52:41;;;;;;;15.63;14.03;;;;;;;20.91;78.59;99414.27;2135922;82;21574;-70
2022/06/09 06:55:44;;;;;;;14.18;12.45;;;;;;;21.25;78.00;99412.75;2155958;82;21070;-69
2022/06/09 06:58:46;;;;;;;12.98;11.70;;;;;;;21.40;76.53;99404.86;2153797;82;20959;-70
2022/06/09 07:01:47;;;;;;;12.78;11.48;;;;;;;21.45;76.34;99411.63;2124099;81;21074;-70
2022/06/09 07:04:48;;;;;;;12.50;11.30;;;;;;;21.61;76.40;99409.90;2122658;81;20986;-69
2022/06/09 07:07:50;;;;;;;11.35;10.25;;;;;;;21.81;75.57;99413.85;2142640;81;21783;-70
2022/06/09 07:10:53;;;;;;;10.20;9.20;;;;;;;21.90;75.01;99409.05;2145178;82;20990;-70
2022/06/09 07:13:54;;;;;;;9.90;7.47;;;;;;;22.29;74.62;99420.98;2143230;82;21040;-70
2022/06/09 07:16:55;;;;;;;6.97;6.30;;;;;;;22.44;72.38;99416.23;2146144;81;20947;-70
2022/06/09 07:19:56;;;;;;;8.38;6.90;;;;;;;22.42;71.06;99417.56;2157840;81;20962;-69
2022/06/09 07:22:58;;;;;;;7.25;6.33;;;;;;;22.42;70.25;99418.91;2132919;82;21053;-70
2022/06/09 07:26:01;;;;;;;7.17;6.47;;;;;;;22.38;70.43;99415.38;2126279;81;20995;-70
2022/06/09 07:29:03;;;;;;;8.18;7.42;;;;;;;22.31;69.79;99422.08;2148216;81;21076;-70
2022/06/09 07:32:06;;;;;;;8.38;7.45;;;;;;;22.07;69.34;99418.91;2206774;80;20990;-71
2022/06/09 07:35:12;;;;;;;9.60;7.50;;;;;;;22.02;69.71;99417.52;2161365;80;20994;-70
2022/06/09 07:38:13;;;;;;;7.45;6.75;;;;;;;22.06;69.42;99421.34;2154614;82;20944;-70
2022/06/09 07:41:15;;;;;;;9.15;7.20;;;;;;;21.85;68.54;99426.59;2185003;81;21008;-70
2022/06/09 07:44:17;;;;;;;7.75;6.97;;;;;;;21.93;69.27;99422.06;2135101;82;21014;-72
2022/06/09 07:47:18;;;;;;;8.15;7.35;;;;;;;22.10;69.11;99427.84;2183744;81;20959;-72
2022/06/09 07:50:49;;;;;;;7.78;7.05;;;;;;;22.11;68.93;99426.78;2142790;83;21006;-72
2022/06/09 07:53:52;;;;;;;8.80;7.20;;;;;;;22.27;68.78;99433.95;2182085;81;21001;-72
2022/06/09 07:56:53;;;;;;;8.30;7.40;;;;;;;22.48;68.52;99431.38;2144947;81;21037;-72
2022/06/09 07:59:55;;;;;;;9.10;7.60;;;;;;;22.66;68.35;99428.21;2140608;81;21021;-72
2022/06/09 08:02:57;;;;;;;8.68;7.42;;;;;;;22.96;68.12;99435.68;2167423;80;20999;-72
2022/06/09 08:05:58;;;;;;;8.73;7.70;;;;;;;23.16;66.95;99424.11;2147558;81;21040;-72
2022/06/09 08:09:00;;;;;;;8.98;6.85;;;;;;;23.26;66.70;99430.91;2162111;81;21025;-72
2022/06/09 08:12:02;;;;;;;7.53;6.80;;;;;;;23.57;66.18;99432.33;2172993;80;21824;-73
2022/06/09 08:15:05;;;;;;;7.45;6.75;;;;;;;24.08;65.38;99427.49;2172669;81;21049;-73
2022/06/09 08:18:06;;;;;;;6.90;6.15;;;;;;;24.51;65.19;99425.27;2185547;81;21045;-73
2022/06/09 08:21:08;;;;;;;7.28;6.58;;;;;;;24.67;64.22;99419.27;2192924;81;21035;-73
2022/06/09 08:24:10;;;;;;;6.47;5.87;;;;;;;24.72;63.74;99426.00;2190929;81;21105;-73
2022/06/09 08:27:17;;;;;;;6.03;5.53;;;;;;;24.77;63.47;99430.06;2181375;80;21073;-73
2022/06/09 08:30:19;;;;;;;5.97;5.40;;;;;;;24.50;61.49;99424.47;2168097;80;21004;-73
2022/06/09 08:33:22;;;;;;;6.37;5.78;;;;;;;24.23;61.59;99426.66;2153952;81;21760;-73
2022/06/09 08:36:24;;;;;;;6.47;5.67;;;;;;;23.99;61.62;99432.65;2135548;83;21787;-72
2022/06/09 08:39:26;;;;;;;5.85;5.33;;;;;;;24.05;61.50;99434.27;2141872;81;21034;-73
2022/06/09 08:42:41;;;;;;;6.17;5.58;;;;;;;24.18;61.58;99429.37;2145731;82;20966;-73
2022/06/09 08:45:44;;;;;;;5.83;5.33;;;;;;;24.20;60.82;99436.69;2155958;81;21058;-73
2022/06/09 08:48:47;;;;;;;6.05;4.95;;;;;;;24.20;60.78;99429.91;2143979;82;21266;-72
2022/06/09 08:51:52;;;;;;;6.33;5.83;;;;;;;24.35;60.94;99432.59;2100258;83;21045;-73
2022/06/09 08:54:55;;;;;;;6.67;5.08;;;;;;;24.50;60.99;99441.28;2132098;83;21041;-73
2022/06/09 08:58:24;;;;;;;5.87;5.28;;;;;;;24.74;60.95;99438.75;2127983;81;21028;-73
2022/06/09 09:01:34;;;;;;;7.80;5.78;;;;;;;24.68;60.27;99442.03;2145722;81;21065;-73
2022/06/09 09:08:42;;;;;;;6.50;5.87;;;;;;;24.84;60.17;99449.58;2127485;80;21074;-73
2022/06/09 09:12:13;;;;;;;7.03;6.37;;;;;;;24.83;59.73;99450.66;2162797;82;21300;-73
2022/06/09 09:23:33;;;;;;;7.17;6.05;;;;;;;24.40;59.16;99461.05;2133818;81;21129;-73
2022/06/09 09:27:18;;;;;;;6.10;5.50;;;;;;;24.43;59.76;99457.82;2148590;80;21769;-73
2022/06/09 09:30:40;;;;;;;5.87;5.37;;;;;;;24.44;59.38;99455.39;2118037;82;21006;-73
2022/06/09 09:33:42;;;;;;;5.87;5.37;;;;;;;24.32;58.95;99458.34;2143286;81;20995;-72
2022/06/09 09:36:51;;;;;;;6.45;5.55;;;;;;;24.26;59.12;99456.73;2176190;80;20985;-72
2022/06/09 09:40:06;;;;;;;6.42;5.45;;;;;;;24.32;59.00;99456.98;2167086;80;21434;-73
2022/06/09 09:43:17;;;;;;;6.75;5.62;;;;;;;24.44;59.28;99456.75;2174859;81;21802;-73
2022/06/09 09:50:30;;;;;;;5.47;4.97;;;;;;;25.08;58.83;99462.50;2161689;81;21006;-72
2022/06/09 09:53:55;;;;;;;6.50;5.30;;;;;;;25.75;58.11;99467.84;2161282;80;20978;-76
2022/06/09 09:57:38;;;;;;;6.87;5.00;;;;;;;25.75;55.68;99457.52;2159929;82;20994;-72
2022/06/09 10:00:40;;;;;;;6.03;5.17;;;;;;;25.35;56.67;99459.42;2176418;81;21018;-72
2022/06/09 10:15:41;;;;;;;4.85;4.45;;;;;;;25.91;53.43;99465.31;2182722;81;21073;-72
2022/06/09 10:18:58;;;;;;;6.25;5.08;;;;;;;25.50;54.41;99470.98;2182916;81;20966;-72
2022/06/09 10:22:04;;;;;;;6.08;4.62;;;;;;;25.52;54.44;99471.27;2164389;80;20967;-72
2022/06/09 10:25:24;;;;;;;5.05;4.55;;;;;;;25.72;54.03;99471.12;2131928;82;20997;-73
2022/06/09 10:29:20;;;;;;;6.28;4.85;;;;;;;26.07;54.70;99474.16;2164841;81;21006;-72
2022/06/09 10:32:38;;;;;;;4.72;4.10;;;;;;;26.36;51.56;99476.08;2152282;81;21027;-72
2022/06/09 10:44:50;;;;;;;4.50;4.10;;;;;;;26.54;52.43;99468.56;2105598;83;21045;-72
2022/06/09 10:56:20;;;;;;;4.58;4.17;;;;;;;26.40;51.30;99475.75;2092339;85;21041;-72
2022/06/09 10:59:33;;;;;;;5.75;5.15;;;;;;;26.42;51.85;99459.16;2075053;85;21490;-73
2022/06/09 11:02:35;;;;;;;5.50;5.00;;;;;;;26.39;51.65;99458.63;2096600;82;21513;-76
2022/06/09 11:06:17;;;;;;;5.50;5.00;;;;;;;26.32;51.76;99463.58;2140048;81;21021;-72
2022/06/09 11:09:49;;;;;;;5.10;4.67;;;;;;;26.27;51.89;99471.81;2141492;81;20974;-73
2022/06/09 11:13:13;;;;;;;5.87;5.00;;;;;;;26.32;51.72;99464.94;2136886;81;21323;-73
2022/06/09 11:16:44;;;;;;;5.22;4.72;;;;;;;26.64;52.43;99455.94;2147356;81;21042;-76
2022/06/09 11:20:09;;;;;;;6.67;5.12;;;;;;;26.85;51.62;99459.25;2144465;81;21018;-73
2022/06/09 11:23:22;;;;;;;5.67;5.08;;;;;;;26.74;51.07;99453.92;2145401;81;21073;-73
2022/06/09 11:26:46;;;;;;;6.87;5.15;;;;;;;26.38;51.39;99446.14;2144683;81;21564;-73
2022/06/09 11:30:04;;;;;;;9.40;5.90;;;;;;;26.27;51.77;99450.58;2118727;81;21023;-73
2022/06/09 11:37:30;;;;;;;12.55;8.23;;;;;;;26.72;52.47;99444.42;2142505;82;21062;-72
2022/06/09 11:40:52;;;;;;;8.85;6.95;;;;;;;26.63;51.54;99445.61;2137227;81;21101;-72
2022/06/09 11:44:11;;;;;;;7.53;5.75;;;;;;;26.35;51.23;99441.80;2131077;81;21007;-72
2022/06/09 11:47:17;;;;;;;7.62;6.08;;;;;;;26.22;52.01;99440.58;2146611;82;21357;-72
2022/06/09 11:50:24;;;;;;;5.50;5.00;;;;;;;26.21;51.95;99445.73;2110157;82;21544;-72
2022/06/09 11:53:29;;;;;;;6.90;5.10;;;;;;;26.24;52.04;99443.00;2149478;82;20979;-72
2022/06/09 11:56:43;;;;;;;6.35;5.17;;;;;;;26.21;51.98;99440.86;2109545;82;21043;-72
2022/06/09 12:04:28;;;;;;;5.42;4.92;;;;;;;26.02;52.12;99442.14;2132768;82;20987;-69
2022/06/09 12:08:07;;;;;;;6.05;5.55;;;;;;;25.69;52.10;99437.18;2128280;81;21575;-70
2022/06/09 12:11:19;;;;;;;6.37;5.78;;;;;;;25.69;52.68;99445.33;2121891;82;21764;-70
2022/06/09 12:14:34;;;;;;;7.55;5.65;;;;;;;25.73;53.12;99444.21;2136012;82;21064;-70
2022/06/09 12:18:31;;;;;;;7.30;6.05;;;;;;;25.64;53.29;99441.84;2101013;85;21036;-70
2022/06/09 12:21:37;;;;;;;7.03;6.40;;;;;;;25.56;52.91;99443.80;2133274;82;21047;-70
2022/06/09 12:28:56;;;;;;;6.58;6.00;;;;;;;25.18;53.45;99441.58;2142249;82;21083;-69
2022/06/09 12:40:37;;;;;;;15.43;8.73;;;;;;;24.31;54.38;99440.46;2153973;81;21046;-72
2022/06/09 12:43:42;;;;;;;20.48;13.35;;;;;;;23.99;55.91;99455.69;2134491;82;20998;-71
2022/06/09 12:46:47;;;;;;;33.75;16.12;;;;;;;23.62;57.39;99467.52;2132915;82;20996;-71
2022/06/09 12:49:56;;;;;;;18.15;13.48;;;;;;;23.29;59.08;99468.81;2129820;81;21077;-71
2022/06/09 12:52:58;;;;;;;20.15;15.95;;;;;;;22.86;59.66;99474.81;2111658;82;21086;-71
2022/06/09 13:00:10;;;;;;;28.98;17.48;;;;;;;22.22;61.18;99496.06;2119339;82;21319;-71
2022/06/09 13:07:33;;;;;;;18.92;16.73;;;;;;;21.74;63.31;99483.43;2125975;80;21002;-71
2022/06/09 13:14:51;;;;;;;22.32;18.12;;;;;;;21.33;64.33;99487.85;2167984;80;21063;-71
2022/06/09 13:17:53;;;;;;;19.98;17.90;;;;;;;21.13;65.33;99486.27;2156889;80;20971;-71
2022/06/09 13:21:03;;;;;;;22.10;19.55;;;;;;;21.03;66.23;99487.78;2137236;82;21031;-70
2022/06/09 13:24:10;;;;;;;23.42;20.70;;;;;;;21.00;66.75;99490.14;2118352;80;20991;-70
2022/06/09 13:27:22;;;;;;;22.65;19.48;;;;;;;20.98;67.40;99490.95;2146120;81;21009;-71
2022/06/09 13:34:33;;;;;;;27.22;24.50;;;;;;;20.99;68.12;99500.13;2101610;82;21581;-71
2022/06/09 13:37:44;;;;;;;22.32;20.02;;;;;;;21.04;68.75;99510.17;2153032;81;20995;-71
2022/06/09 13:40:53;;;;;;;20.92;18.80;;;;;;;20.98;68.42;99505.24;2131664;82;20994;-70
2022/06/09 13:43:58;;;;;;;20.68;18.57;;;;;;;20.98;68.60;99512.52;2160738;80;20990;-71
2022/06/09 13:47:25;;;;;;;19.30;17.17;;;;;;;21.04;68.75;99505.59;2175282;80;21021;-71
2022/06/09 13:50:41;;;;;;;18.10;16.27;;;;;;;21.15;69.06;99498.44;2130145;82;21796;-71
2022/06/09 13:53:50;;;;;;;15.48;13.98;;;;;;;21.23;68.74;99499.86;2145638;83;21040;-71
2022/06/09 13:56:53;;;;;;;16.80;13.50;;;;;;;21.28;68.52;99512.87;2145820;83;21377;-71
2022/06/09 13:59:56;;;;;;;15.32;13.35;;;;;;;21.30;68.19;99523.44;2157706;80;21768;-71
2022/06/09 14:07:37;;;;;;;19.42;17.40;;;;;;;21.22;68.82;99547.61;2155582;82;21976;-72
2022/06/09 14:10:41;;;;;;;16.12;14.40;;;;;;;21.10;69.06;99550.16;2155293;81;21006;-72
2022/06/09 14:13:43;;;;;;;15.95;13.18;;;;;;;20.95;69.54;99547.55;2145871;82;21039;-72
2022/06/09 14:17:31;;;;;;;13.50;12.15;;;;;;;20.87;69.82;99539.88;2103037;85;21023;-71
2022/06/09 14:20:34;;;;;;;15.00;12.75;;;;;;;20.81;70.61;99532.78;2100912;83;20986;-72
2022/06/09 14:23:36;;;;;;;15.65;13.95;;;;;;;20.71;70.87;99535.32;2156021;82;21046;-73
2022/06/09 14:26:37;;;;;;;18.70;13.90;;;;;;;20.65;70.88;99536.31;2127275;82;21046;-73
2022/06/09 14:30:13;;;;;;;14.93;13.53;;;;;;;20.65;71.03;99553.84;2120055;83;21800;-72
2022/06/09 14:33:15;;;;;;;15.32;13.40;;;;;;;20.63;71.27;99569.43;2160688;80;20973;-72
2022/06/09 14:36:46;;;;;;;15.90;14.28;;;;;;;20.60;71.50;99567.50;2179843;82;21049;-72
2022/06/09 14:39:47;;;;;;;17.20;15.20;;;;;;;20.62;71.76;99573.20;2141963;82;20970;-72
2022/06/09 14:42:49;;;;;;;14.80;13.40;;;;;;;20.65;72.02;99560.58;2165795;82;21236;-72
2022/06/09 14:45:54;;;;;;;15.10;13.70;;;;;;;20.69;72.06;99557.66;2170328;80;21073;-73
2022/06/09 14:48:57;;;;;;;15.65;14.05;;;;;;;20.73;72.23;99552.08;2134996;81;21054;-71
2022/06/09 14:51:58;;;;;;;17.73;15.93;;;;;;;20.80;72.40;99558.09;2111265;82;21005;-72
2022/06/09 14:55:49;;;;;;;16.23;14.73;;;;;;;20.84;72.51;99558.44;2173266;82;21061;-72
2022/06/09 15:03:28;;;;;;;16.57;14.65;;;;;;;21.03;72.81;99574.59;2173028;80;21057;-70
2022/06/09 15:06:30;;;;;;;14.68;13.35;;;;;;;21.16;72.51;99581.53;2162062;82;21042;-70
2022/06/09 15:09:32;;;;;;;15.72;14.20;;;;;;;21.34;72.76;99575.00;2159646;80;21050;-70
2022/06/09 15:12:33;;;;;;;16.93;13.43;;;;;;;21.45;72.07;99573.55;2155947;80;21030;-70
2022/06/09 15:15:36;;;;;;;13.88;12.47;;;;;;;21.56;71.80;99579.09;2173302;82;21563;-69
2022/06/09 15:18:42;;;;;;;12.82;11.63;;;;;;;21.61;70.87;99581.85;2158721;80;21010;-70
2022/06/09 15:21:44;;;;;;;12.28;11.18;;;;;;;21.73;70.51;99577.66;2207176;80;21053;-69
2022/06/09 15:29:06;;;;;;;16.32;11.22;;;;;;;21.93;69.49;99569.26;2153700;80;21915;-69
2022/06/09 15:32:10;;;;;;;11.30;10.30;;;;;;;22.02;69.03;99571.47;2128033;82;21321;-69
2022/06/09 15:35:13;;;;;;;11.33;10.25;;;;;;;22.07;68.60;99578.28;2132387;82;21853;-69
2022/06/09 15:38:16;;;;;;;11.45;10.35;;;;;;;22.10;68.39;99584.02;2134924;82;20995;-69
2022/06/09 15:42:17;;;;;;;11.73;10.53;;;;;;;22.23;68.53;99588.20;2151607;82;21046;-69
2022/06/09 15:54:29;;;;;;;17.67;9.90;;;;;;;22.36;67.71;99619.41;2119506;82;21022;-69
2022/06/09 15:57:30;;;;;;;11.03;9.90;;;;;;;22.52;67.16;99627.09;2111570;82;21135;-70
2022/06/09 16:00:34;;;;;;;9.55;8.10;;;;;;;22.58;66.93;99639.06;2126253;82;20985;-69
2022/06/09 16:03:38;;;;;;;8.10;7.30;;;;;;;22.66;66.72;99639.11;2131954;81;20986;-70
2022/06/09 16:06:41;;;;;;;12.20;10.95;;;;;;;22.75;66.16;99636.74;2155993;82;21820;-69
2022/06/09 16:09:42;;;;;;;9.68;8.78;;;;;;;22.71;65.64;99635.09;2116206;82;21795;-69
2022/06/09 16:12:45;;;;;;;10.95;9.80;;;;;;;22.60;65.32;99637.44;2116179;82;21002;-69
2022/06/09 16:24:48;;;;;;;12.43;11.22;;;;;;;22.11;66.42;99650.47;2081615;83;21514;-69
2022/06/09 16:27:51;;;;;;;12.85;11.68;;;;;;;21.88;66.98;99662.91;2133459;82;21111;-69
2022/06/09 16:35:25;;;;;;;17.00;15.20;;;;;;;21.56;68.53;99679.77;2172802;82;21054;-69